Portada
METAR-TAF:

METAR-TAF

Aeroports :

Uherské Hradiště, República Txeca

latitud: 49-01-46N, longitud: 017-26-23E, altitud: 177 m

Observació

L'informe es va fer fa 31 minuts, a les 10:00 UTC
Vent 6 kt del Nord-Est
Temperatura 19°C
Humitat 52%
Pressió 1006 hPa
Visibilitat 10 km o més
Núvols disperses a una alçada de 3800 ft

METAR: LKKU 031000Z 04006KT 9999 SCT038 19/09 Q1006

Hora: 12:31 (10:31 UTC)


TAF: manca

Observacions i pronòstics meteorològics de més de 4000 aeroports (METAR i TAF).

Les estacions disponibles són els punts grocs i vermells al mapa.

Posi el ratolí al punt desitjat per veure el nom de l'estació.

Feu clic per veure les observacions i els pronòstics meteorològics.

Per canviar el mapa: feu clic els botons verds amb una creu de color negre per apropar; al botó verd amb un guió per allunyar la imatge; o en les fletxes verdes per a mapes adjacents.


METAR-TAF: